Berlin, New Hampshire
Current Conditions -  °F | °C
As of 8:52 PM on Thursday 20 Nov 2014 (Local Time) from KBML Reporting Station
Clear Clear  
Wind Chill: 15°   Ceiling: Unl
Heat Index: 15°   Visibility: 10mi
Dew Point: 10°   Wind: 0mph
Humidity: 80%   Direction: NA
Pressure: 29.76"   Gusts: NA
Location:  44.47°N, 71.18°W
Report Text: KBML 210152Z AUTO 00000KT 10SM CLR M09/M12 A2976 RMK AO2 SLP098 T10941122
Loading
Personal Weather Stations






























Interactive Weather Map New forecast layout! Learn more

10-Day Weather Forecast

Advertisements
Track Severe Weather on mobile